Fairfield, TX (75840)

6:56 PM CDT on September 03, 2015 (GMT -0500)
Sam's Restaurant | | Change Station
CLOSE
Current Station
Personal Weather Station
Location: Fairfield, TX
Elevation: 474 ft
Nearby Weather Stations

Elev 474 ft 31.73 °N, 96.15 °W | Updated 8 seconds ago

Partly Cloudy
Partly Cloudy
90.5 °F
Feels Like 97 °F
N
0.0
Wind Variable Wind from ESE
Gusts 4.0 mph

Today
High -- | Low -- °F
--% Chance of Precip.
Yesterday
High -- | Low -- °F
Precip. -- in
7:01 AM 7:46 PM
Waning Gibbous, 65% visible
Pressure 29.85 in
Visibility 10.0 miles
Clouds Scattered Clouds 200 ft
Scattered Clouds 6000 ft
Heat Index 97 °F
Dew Point 70 °F
Humidity 52%
Rainfall 0.00 in
Snow Depth Not available.
UV 1 out of 12
Pollen 8.80 out of 12
Air Quality Not available.
Flu Activity Not available.
METAR KLXY 032335Z AUTO 10014KT 10SM SCT002 SCT060 33/20 A2985 RMK AO2 T03320195
Pressure 29.85 in
Visibility 10.0 miles
Clouds Scattered Clouds 200 ft
Scattered Clouds 6000 ft
Heat Index 97 °F
Dew Point 70 °F
Humidity 52%
Rainfall 0.00 in
Snow Depth Not available.
UV 1 out of 12
Pollen 8.80 out of 12
Air Quality Not available.
Flu Activity Not available.
METAR KLXY 032335Z AUTO 10014KT 10SM SCT002 SCT060 33/20 A2985 RMK AO2 T03320195
Nowcast | as of 5:55 PM CDT on September 3, 2015

Isolated showers will continue over the next one to two hours mainly for areas along and southeast of a Killeen to Waco to Canton line. A few rumbles of thunder will also be possible. The main hazards with thunderstorms...should they develop...will be gusty winds and occasional cloud to ground lightning. Rain amounts should remain light with totals generally under one quarter of an inch. Otherwise...hot conditions will continue over the next several hours with temperatures in the low to mid 90s.

×

10-Day Weather Forecast

×

Almanac

Astronomy

Sep. 03, 2015 Rise Set
Actual Time
Civil Twilight
Nautical Twilight
Astronomical Twilight
Moon
Length of Visible Light
Length of Day
Tomorrow will be .
, % of the Moon is Illuminated

Today's Extremes

State Highs State Lows

Community

WunderPhotos

Upload Photos

1,852,063 photos uploaded!

WunderBlogs® & News

Nearby

Air Quality

  Air Quality AQ Index Pollutant
Not available.

Snow Depth

Station Depth Elevation

Earthquake Activity

City Distance Mag. Time & Date
Minimum magnitude displayed is 2.5.

Coastal Water Temperatures

Place Temperature

Stations

Nearby Weather Stations

Station Location Temp. Windchill Dew Point Humidity Wind Precip. Elev Updated Type